createdAt,value
2019-05-03T00:00:56.778Z,19.57
2019-05-03T00:03:52.719Z,18.07
2019-05-03T00:06:42.655Z,19.90
2019-05-03T00:09:44.637Z,20.43
2019-05-03T00:13:24.301Z,20.60
2019-05-03T00:16:32.464Z,19.97
2019-05-03T00:19:52.767Z,20.30
2019-05-03T00:22:41.578Z,19.20
2019-05-03T00:25:34.079Z,20.93
2019-05-03T00:28:57.160Z,20.60
2019-05-03T00:31:57.352Z,20.13
2019-05-03T00:34:54.510Z,19.87
2019-05-03T00:37:47.669Z,20.07
2019-05-03T00:40:41.936Z,20.60
2019-05-03T00:43:32.402Z,20.23
2019-05-03T00:46:23.413Z,20.37
2019-05-03T00:49:25.749Z,19.80
2019-05-03T00:52:28.233Z,19.43
2019-05-03T00:55:25.086Z,19.93
2019-05-03T00:58:16.130Z,19.57
2019-05-03T01:01:27.584Z,20.40
2019-05-03T01:04:31.723Z,19.80
2019-05-03T01:07:42.297Z,20.03
2019-05-03T01:10:37.346Z,19.20
2019-05-03T01:13:37.946Z,18.30
2019-05-03T01:16:27.475Z,19.37
2019-05-03T01:19:31.983Z,19.07
2019-05-03T01:22:25.577Z,19.77
2019-05-03T01:25:32.041Z,18.43
2019-05-03T01:28:12.455Z,19.40
2019-05-03T01:31:12.751Z,20.30
2019-05-03T01:34:24.403Z,20.13
2019-05-03T01:37:12.908Z,20.97
2019-05-03T01:40:06.611Z,20.47
2019-05-03T01:42:58.779Z,21.27
2019-05-03T01:45:55.763Z,20.10
2019-05-03T01:49:19.055Z,19.63
2019-05-03T01:52:27.377Z,20.83
2019-05-03T01:55:55.722Z,21.00
2019-05-03T01:59:18.276Z,19.73
2019-05-03T02:02:41.989Z,20.67
2019-05-03T02:05:52.028Z,21.57
2019-05-03T02:08:48.171Z,20.80
2019-05-03T02:11:33.613Z,21.70
2019-05-03T02:14:33.742Z,20.90
2019-05-03T02:17:27.932Z,21.63
2019-05-03T02:20:19.401Z,20.80
2019-05-03T02:23:11.992Z,19.73
2019-05-03T02:26:03.264Z,21.43
2019-05-03T02:28:58.606Z,20.13
2019-05-03T02:31:56.926Z,22.90
2019-05-03T02:35:03.680Z,22.43
2019-05-03T02:37:53.906Z,22.73
2019-05-03T02:40:43.664Z,21.90
2019-05-03T02:44:06.449Z,21.70
2019-05-03T02:47:35.557Z,20.70
2019-05-03T02:50:36.244Z,21.80
2019-05-03T02:53:29.479Z,22.73
2019-05-03T02:56:37.212Z,21.77
2019-05-03T02:59:34.569Z,20.87
2019-05-03T03:02:28.508Z,21.10
2019-05-03T03:08:36.687Z,22.63
2019-05-03T03:11:56.027Z,23.07
2019-05-03T03:15:07.198Z,21.40
2019-05-03T03:17:59.699Z,22.33
2019-05-03T03:20:50.075Z,20.93
2019-05-03T03:24:02.567Z,22.17
2019-05-03T03:31:38.012Z,21.23
2019-05-03T03:34:28.506Z,21.67
2019-05-03T03:37:22.551Z,21.40
2019-05-03T03:40:16.930Z,21.23
2019-05-03T03:43:08.303Z,21.63
2019-05-03T03:46:00.942Z,21.83
2019-05-03T03:48:55.919Z,23.13
2019-05-03T03:55:15.852Z,21.93
2019-05-03T03:58:08.980Z,20.93
2019-05-03T04:01:26.698Z,22.10
2019-05-03T04:04:19.250Z,23.27
2019-05-03T04:07:15.759Z,22.30
2019-05-03T04:10:09.022Z,23.17
2019-05-03T04:13:05.476Z,22.40
2019-05-03T04:16:20.262Z,22.70
2019-05-03T04:19:11.829Z,23.70
2019-05-03T04:22:26.842Z,22.97
2019-05-03T04:25:27.710Z,22.67
2019-05-03T04:28:16.241Z,22.70
2019-05-03T04:31:10.034Z,22.90
2019-05-03T04:34:18.334Z,24.10
2019-05-03T04:37:41.720Z,24.10
2019-05-03T04:40:35.951Z,24.03
2019-05-03T04:46:58.281Z,27.03
2019-05-03T04:49:50.607Z,29.83
2019-05-03T04:52:49.976Z,28.80
2019-05-03T04:55:46.844Z,29.30
2019-05-03T04:58:36.491Z,28.50
2019-05-03T05:01:29.453Z,27.97
2019-05-03T05:04:25.417Z,29.33
2019-05-03T05:07:15.276Z,29.27
2019-05-03T05:10:02.141Z,30.60
2019-05-03T05:12:56.412Z,31.37
2019-05-03T05:15:45.975Z,31.23
2019-05-03T05:18:41.640Z,31.23
2019-05-03T05:21:41.447Z,30.63
2019-05-03T05:24:29.314Z,30.10
2019-05-03T05:27:25.664Z,29.87
2019-05-03T05:33:44.576Z,29.30
2019-05-03T05:36:34.769Z,30.30
2019-05-03T05:39:28.822Z,29.13
2019-05-03T05:42:17.249Z,27.27
2019-05-03T05:45:15.266Z,29.40
2019-05-03T05:48:37.468Z,29.20
2019-05-03T05:55:29.221Z,28.50
2019-05-03T05:58:34.837Z,28.60
2019-05-03T06:01:50.666Z,27.70
2019-05-03T06:04:38.452Z,27.20
2019-05-03T06:08:15.080Z,25.90
2019-05-03T06:14:17.676Z,26.67
2019-05-03T06:17:27.509Z,22.10
2019-05-03T06:23:45.110Z,23.07
2019-05-03T06:27:08.315Z,21.40
2019-05-03T06:30:32.768Z,20.87
2019-05-03T06:34:14.919Z,19.57
2019-05-03T06:36:51.524Z,21.97
2019-05-03T06:39:45.583Z,20.70
2019-05-03T06:42:52.449Z,21.33
2019-05-03T06:45:55.943Z,19.43
2019-05-03T06:48:44.581Z,20.77
2019-05-03T06:51:49.322Z,21.60
2019-05-03T06:54:55.432Z,24.03
2019-05-03T06:58:00.168Z,23.50
2019-05-03T07:00:57.842Z,24.53
2019-05-03T07:04:34.763Z,20.60
2019-05-03T07:07:35.420Z,19.80
2019-05-03T07:10:36.151Z,20.63
2019-05-03T07:13:39.263Z,19.43
2019-05-03T07:16:17.603Z,21.03
2019-05-03T07:19:14.603Z,21.47
2019-05-03T07:25:44.803Z,17.97
2019-05-03T07:28:46.240Z,18.20
2019-05-03T07:31:29.332Z,18.47
2019-05-03T07:34:45.269Z,19.57
2019-05-03T07:37:41.098Z,17.97
2019-05-03T07:40:28.498Z,17.43
2019-05-03T07:43:18.635Z,16.20
2019-05-03T07:46:07.636Z,14.00
2019-05-03T07:48:55.601Z,11.97
2019-05-03T07:51:47.227Z,13.77
2019-05-03T07:54:35.795Z,12.77
2019-05-03T07:57:45.265Z,10.10
2019-05-03T08:00:34.382Z,10.77
2019-05-03T08:03:26.232Z,10.57
2019-05-03T08:06:14.959Z,11.03
2019-05-03T08:09:04.941Z,10.23
2019-05-03T08:12:09.665Z,10.37
2019-05-03T08:15:05.371Z,9.83
2019-05-03T08:17:53.093Z,10.57
2019-05-03T08:20:41.153Z,10.37
2019-05-03T08:23:35.738Z,10.37
2019-05-03T08:26:25.083Z,11.77
2019-05-03T08:29:35.205Z,11.57
2019-05-03T08:32:56.980Z,11.23
2019-05-03T08:35:47.866Z,11.53
2019-05-03T08:38:36.479Z,11.50
2019-05-03T08:42:05.453Z,11.07
2019-05-03T08:52:25.295Z,12.77
2019-05-03T08:55:15.857Z,12.27
2019-05-03T08:58:05.253Z,12.37
2019-05-03T09:00:54.716Z,11.93
2019-05-03T09:04:00.343Z,12.13
2019-05-03T09:06:56.431Z,11.83
2019-05-03T09:10:02.884Z,11.77
2019-05-03T09:13:08.315Z,12.23
2019-05-03T09:15:57.006Z,11.50
2019-05-03T09:18:45.480Z,10.70
2019-05-03T09:24:43.041Z,11.37
2019-05-03T09:27:34.400Z,10.97
2019-05-03T09:30:24.982Z,11.00
2019-05-03T09:33:35.525Z,10.27
2019-05-03T09:36:34.537Z,9.97
2019-05-03T09:39:31.599Z,9.90
2019-05-03T09:42:35.259Z,10.47
2019-05-03T09:45:29.436Z,10.50
2019-05-03T09:48:17.256Z,10.37
2019-05-03T09:51:05.520Z,10.20
2019-05-03T09:53:58.212Z,9.97
2019-05-03T09:59:59.973Z,9.90
2019-05-03T10:02:51.918Z,9.60
2019-05-03T10:05:39.810Z,9.43
2019-05-03T10:08:27.448Z,9.70
2019-05-03T10:11:28.937Z,10.53
2019-05-03T10:14:17.091Z,9.83
2019-05-03T10:17:55.297Z,10.17
2019-05-03T10:20:44.507Z,10.60
2019-05-03T10:23:39.289Z,11.17
2019-05-03T10:26:27.495Z,10.10
2019-05-03T10:29:35.404Z,10.00
2019-05-03T10:32:44.988Z,10.10
2019-05-03T10:35:35.137Z,11.00
2019-05-03T10:38:24.650Z,10.53
2019-05-03T10:41:12.960Z,10.60
2019-05-03T10:44:02.367Z,10.87
2019-05-03T10:46:50.574Z,11.43
2019-05-03T10:49:42.384Z,11.00
2019-05-03T10:52:44.665Z,10.00
2019-05-03T11:02:48.100Z,10.80
2019-05-03T11:05:45.341Z,11.57
2019-05-03T11:08:32.789Z,9.43
2019-05-03T11:11:21.492Z,11.30
2019-05-03T11:14:09.958Z,11.07
2019-05-03T11:17:00.473Z,11.40
2019-05-03T11:19:47.483Z,10.60
2019-05-03T11:22:41.327Z,9.53
2019-05-03T11:25:30.668Z,8.63
2019-05-03T11:28:24.930Z,9.83
2019-05-03T11:31:30.253Z,9.67
2019-05-03T11:34:22.758Z,9.50
2019-05-03T11:37:48.437Z,8.37
2019-05-03T11:40:36.723Z,9.33
2019-05-03T11:43:24.923Z,9.40
2019-05-03T11:46:12.546Z,10.07
2019-05-03T11:49:00.828Z,9.03
2019-05-03T11:51:49.090Z,8.87
2019-05-03T11:54:37.146Z,9.53
2019-05-03T11:57:27.072Z,9.13
2019-05-03T12:00:19.803Z,9.13
2019-05-03T12:03:39.165Z,9.63
2019-05-03T12:06:05.899Z,8.43
2019-05-03T12:08:55.371Z,9.37
2019-05-03T12:11:43.572Z,9.03
2019-05-03T12:14:31.241Z,7.90
2019-05-03T12:17:29.763Z,8.27
2019-05-03T12:20:19.316Z,8.70
2019-05-03T12:23:07.482Z,8.20
2019-05-03T12:25:56.902Z,7.90
2019-05-03T12:28:45.067Z,8.53
2019-05-03T12:31:40.623Z,8.30
2019-05-03T12:34:27.829Z,8.70
2019-05-03T12:37:17.455Z,9.10
2019-05-03T12:40:05.720Z,8.50
2019-05-03T12:42:55.240Z,9.07
2019-05-03T12:45:45.933Z,8.40
2019-05-03T12:48:35.508Z,8.87
2019-05-03T12:51:25.526Z,8.50
2019-05-03T12:54:19.374Z,8.13
2019-05-03T12:57:15.483Z,8.80
2019-05-03T13:00:20.858Z,8.63
2019-05-03T13:03:12.679Z,8.33
2019-05-03T13:06:00.326Z,7.73
2019-05-03T13:08:48.393Z,8.13
2019-05-03T13:11:51.568Z,7.50
2019-05-03T13:14:27.960Z,7.80
2019-05-03T13:17:19.073Z,7.17
2019-05-03T13:20:13.156Z,7.80
2019-05-03T13:23:00.984Z,7.30
2019-05-03T13:25:48.980Z,7.23
2019-05-03T13:28:36.691Z,6.80
2019-05-03T13:31:25.673Z,6.53
2019-05-03T13:34:15.582Z,6.90
2019-05-03T13:37:05.271Z,6.50
2019-05-03T13:39:55.418Z,6.77
2019-05-03T13:42:56.049Z,6.80
2019-05-03T13:45:32.549Z,6.63
2019-05-03T13:48:23.566Z,7.30
2019-05-03T13:51:28.185Z,7.07
2019-05-03T13:54:57.246Z,6.83
2019-05-03T14:02:15.024Z,7.07
2019-05-03T14:04:56.544Z,6.83
2019-05-03T14:08:34.852Z,7.00
2019-05-03T14:14:56.437Z,6.93
2019-05-03T14:17:44.336Z,7.17
2019-05-03T14:20:55.097Z,7.87
2019-05-03T14:24:00.417Z,7.27
2019-05-03T14:26:54.999Z,7.43
2019-05-03T14:29:38.277Z,7.40
2019-05-03T14:32:35.913Z,6.17
2019-05-03T14:35:37.501Z,7.00
2019-05-03T14:38:25.532Z,6.60
2019-05-03T14:41:15.098Z,6.93
2019-05-03T14:44:04.998Z,7.50
2019-05-03T14:46:58.764Z,7.33
2019-05-03T14:49:43.081Z,6.77
2019-05-03T14:52:34.725Z,6.70
2019-05-03T14:55:31.478Z,6.00
2019-05-03T14:58:45.687Z,6.10
2019-05-03T15:02:01.223Z,5.57
2019-05-03T15:04:49.318Z,6.50
2019-05-03T15:07:37.042Z,6.07
2019-05-03T15:10:24.938Z,5.20
2019-05-03T15:13:13.359Z,5.77
2019-05-03T15:16:01.468Z,6.27
2019-05-03T15:18:49.212Z,6.20
2019-05-03T15:21:37.060Z,6.30
2019-05-03T15:24:25.299Z,6.03
2019-05-03T15:27:13.713Z,5.53
2019-05-03T15:30:01.558Z,5.37
2019-05-03T15:32:57.865Z,5.47
2019-05-03T15:35:39.407Z,5.50
2019-05-03T15:38:27.576Z,4.87
2019-05-03T15:41:17.434Z,3.97
2019-05-03T15:44:36.771Z,3.73
2019-05-03T15:47:28.974Z,3.40
2019-05-03T15:53:04.520Z,2.93
2019-05-03T15:55:52.237Z,2.70
2019-05-03T15:58:40.716Z,3.00
2019-05-03T16:01:29.192Z,3.00
2019-05-03T16:04:17.641Z,2.93
2019-05-03T16:07:06.018Z,3.50
2019-05-03T16:09:55.388Z,3.90
2019-05-03T16:12:44.951Z,3.50
2019-05-03T16:15:35.046Z,3.70
2019-05-03T16:18:24.349Z,3.50
2019-05-03T16:21:11.703Z,3.63
2019-05-03T16:23:59.460Z,3.80
2019-05-03T16:27:21.461Z,4.27
2019-05-03T16:30:27.451Z,4.20
2019-05-03T16:33:26.690Z,3.87
2019-05-03T16:36:05.602Z,3.70
2019-05-03T16:38:55.426Z,3.80
2019-05-03T16:41:44.707Z,4.17
2019-05-03T16:44:34.942Z,3.77
2019-05-03T16:47:24.824Z,4.23
2019-05-03T16:50:14.008Z,4.33
2019-05-03T16:53:01.215Z,5.23
2019-05-03T16:55:49.365Z,4.87
2019-05-03T16:58:36.967Z,4.80
2019-05-03T17:01:24.711Z,4.87
2019-05-03T17:04:34.586Z,4.97
2019-05-03T17:07:49.162Z,4.93
2019-05-03T17:10:40.683Z,5.00
2019-05-03T17:13:28.581Z,5.07
2019-05-03T17:16:17.124Z,5.80
2019-05-03T17:19:05.873Z,5.03
2019-05-03T17:21:54.802Z,4.97
2019-05-03T17:24:44.352Z,4.73
2019-05-03T17:27:35.658Z,4.53
2019-05-03T17:30:32.643Z,4.70
2019-05-03T17:33:13.196Z,4.67
2019-05-03T17:36:01.409Z,5.03
2019-05-03T17:38:50.983Z,4.73
2019-05-03T17:42:05.272Z,4.90
2019-05-03T17:44:54.579Z,4.87
2019-05-03T17:47:43.000Z,4.47
2019-05-03T17:50:31.145Z,4.60
2019-05-03T17:53:54.875Z,6.00
2019-05-03T17:57:01.866Z,6.43
2019-05-03T18:00:11.025Z,7.17
2019-05-03T18:03:04.764Z,5.83
2019-05-03T18:06:04.778Z,4.53
2019-05-03T18:09:11.800Z,4.03
2019-05-03T18:12:04.665Z,4.47
2019-05-03T18:14:52.977Z,4.60
2019-05-03T18:17:40.744Z,4.33
2019-05-03T18:20:28.873Z,4.23
2019-05-03T18:24:06.466Z,4.00
2019-05-03T18:28:02.487Z,4.03
2019-05-03T18:46:40.912Z,4.30
2019-05-03T18:57:20.963Z,4.50
2019-05-03T19:00:24.630Z,4.23
2019-05-03T19:03:15.720Z,3.80
2019-05-03T19:06:08.571Z,3.90
2019-05-03T19:09:14.568Z,4.17
2019-05-03T19:12:20.335Z,4.37
2019-05-03T19:15:09.264Z,4.40
2019-05-03T19:18:07.595Z,5.00
2019-05-03T19:20:55.468Z,4.60
2019-05-03T19:23:44.675Z,5.30
2019-05-03T19:26:32.886Z,5.03
2019-05-03T19:29:20.890Z,5.30
2019-05-03T19:33:31.709Z,5.17
2019-05-03T19:36:50.469Z,5.73
2019-05-03T19:39:38.935Z,5.23
2019-05-03T19:42:27.412Z,5.40
2019-05-03T19:45:15.636Z,5.10
2019-05-03T19:48:03.348Z,4.80
2019-05-03T19:50:51.328Z,4.67
2019-05-03T19:53:47.039Z,5.30
2019-05-03T19:56:50.464Z,5.43
2019-05-03T19:59:56.351Z,5.07
2019-05-03T20:06:22.395Z,5.40
2019-05-03T20:09:15.156Z,5.23
2019-05-03T20:12:04.767Z,5.50
2019-05-03T20:14:57.213Z,6.20
2019-05-03T20:17:56.495Z,6.10
2019-05-03T20:21:14.914Z,5.43
2019-05-03T20:24:07.893Z,5.80
2019-05-03T20:35:25.098Z,5.70
2019-05-03T20:38:29.807Z,5.60
2019-05-03T20:46:15.092Z,6.60
2019-05-03T20:49:20.369Z,6.00
2019-05-03T20:52:24.537Z,6.30
2019-05-03T20:55:25.567Z,6.17
2019-05-03T21:02:06.379Z,6.37
2019-05-03T21:09:54.755Z,6.77
2019-05-03T21:12:54.436Z,6.90
2019-05-03T21:16:12.207Z,6.60
2019-05-03T21:19:25.635Z,7.40
2019-05-03T21:22:39.922Z,6.60
2019-05-03T21:26:03.586Z,6.67
2019-05-03T21:31:44.526Z,7.27
2019-05-03T21:34:34.615Z,6.70
2019-05-03T21:37:45.269Z,6.73
2019-05-03T21:40:34.878Z,6.63
2019-05-03T21:43:28.438Z,7.47
2019-05-03T21:49:56.510Z,7.70
2019-05-03T21:52:57.667Z,7.87
2019-05-03T21:55:47.858Z,7.33
2019-05-03T21:58:37.019Z,7.20
2019-05-03T22:01:29.015Z,7.57
2019-05-03T22:04:18.333Z,7.77
2019-05-03T22:07:07.627Z,7.30
2019-05-03T22:09:57.584Z,7.80
2019-05-03T22:12:45.084Z,8.00
2019-05-03T22:15:50.952Z,8.10
2019-05-03T22:18:38.833Z,8.17
2019-05-03T22:21:45.275Z,8.30
2019-05-03T22:24:42.204Z,7.47
2019-05-03T22:27:36.541Z,7.70
2019-05-03T22:30:27.306Z,7.70
2019-05-03T22:33:15.499Z,7.33
2019-05-03T22:36:09.457Z,8.23
2019-05-03T22:39:00.739Z,8.87
2019-05-03T22:41:54.581Z,8.87
2019-05-03T22:44:44.716Z,9.63
2019-05-03T22:47:35.733Z,9.23
2019-05-03T22:50:25.375Z,10.43
2019-05-03T22:53:14.797Z,10.23
2019-05-03T22:56:07.364Z,10.60
2019-05-03T22:58:57.208Z,9.93
2019-05-03T23:01:45.767Z,10.30
2019-05-03T23:04:35.589Z,11.30
2019-05-03T23:07:27.856Z,11.17
2019-05-03T23:10:17.412Z,9.93
2019-05-03T23:13:05.757Z,10.37
2019-05-03T23:15:56.331Z,10.73
2019-05-03T23:18:44.510Z,10.80
2019-05-03T23:21:55.420Z,11.37
2019-05-03T23:24:43.375Z,10.57
2019-05-03T23:27:35.389Z,11.50
2019-05-03T23:30:24.775Z,10.53
2019-05-03T23:33:18.998Z,10.60
2019-05-03T23:36:07.207Z,10.17
2019-05-03T23:38:55.499Z,11.07
2019-05-03T23:41:45.231Z,11.50
2019-05-03T23:44:35.419Z,11.17
2019-05-03T23:47:34.646Z,10.60
2019-05-03T23:50:24.852Z,10.80
2019-05-03T23:53:20.296Z,10.77
2019-05-03T23:56:17.727Z,10.80
2019-05-03T23:59:10.706Z,10.37
